createdAt,value
2022-10-05T00:01:33.034Z,82.76
2022-10-05T00:04:12.225Z,83.71
2022-10-05T00:06:40.918Z,83.47
2022-10-05T00:09:14.846Z,83.51
2022-10-05T00:11:43.968Z,82.82
2022-10-05T00:14:19.079Z,82.90
2022-10-05T00:16:49.884Z,82.51
2022-10-05T00:19:23.417Z,82.64
2022-10-05T00:21:52.067Z,82.72
2022-10-05T00:24:21.659Z,82.23
2022-10-05T00:26:55.392Z,82.80
2022-10-05T00:29:26.663Z,82.43
2022-10-05T00:31:56.773Z,82.52
2022-10-05T00:34:27.616Z,82.26
2022-10-05T00:36:56.246Z,82.01
2022-10-05T00:39:24.856Z,82.36
2022-10-05T00:42:15.016Z,82.09
2022-10-05T00:44:50.260Z,82.22
2022-10-05T00:47:33.457Z,81.62
2022-10-05T00:50:19.631Z,81.91
2022-10-05T00:53:03.196Z,81.68
2022-10-05T00:55:43.656Z,81.88
2022-10-05T00:58:23.865Z,81.15
2022-10-05T01:01:05.536Z,81.01
2022-10-05T01:03:49.140Z,81.62
2022-10-05T01:06:26.887Z,81.12
2022-10-05T01:09:06.979Z,82.02
2022-10-05T01:11:43.849Z,81.33
2022-10-05T01:14:21.888Z,81.16
2022-10-05T01:16:58.027Z,82.22
2022-10-05T01:19:58.380Z,81.87
2022-10-05T01:22:44.520Z,81.43
2022-10-05T01:25:25.140Z,81.72
2022-10-05T01:28:04.860Z,81.84
2022-10-05T01:30:39.696Z,81.71
2022-10-05T01:33:19.096Z,82.40
2022-10-05T01:35:56.995Z,81.60
2022-10-05T01:38:37.355Z,81.82
2022-10-05T01:41:19.761Z,82.39
2022-10-05T01:43:54.427Z,82.23
2022-10-05T01:46:32.376Z,82.50
2022-10-05T01:49:19.287Z,82.30
2022-10-05T01:52:00.380Z,83.14
2022-10-05T01:54:46.376Z,82.66
2022-10-05T01:57:23.918Z,82.67
2022-10-05T02:00:05.130Z,81.89
2022-10-05T02:02:48.951Z,82.55
2022-10-05T02:05:23.220Z,82.49
2022-10-05T02:07:58.927Z,82.29
2022-10-05T02:10:33.035Z,82.04
2022-10-05T02:13:10.900Z,82.49
2022-10-05T02:15:45.755Z,82.64
2022-10-05T02:18:21.157Z,82.48
2022-10-05T02:20:53.994Z,82.17
2022-10-05T02:23:27.350Z,81.88
2022-10-05T02:25:57.718Z,81.81
2022-10-05T02:28:33.697Z,82.42
2022-10-05T02:31:08.551Z,82.03
2022-10-05T02:33:37.826Z,82.48
2022-10-05T02:36:17.567Z,82.01
2022-10-05T02:39:00.755Z,82.72
2022-10-05T02:41:40.146Z,82.38
2022-10-05T02:44:16.889Z,82.57
2022-10-05T02:46:57.447Z,82.52
2022-10-05T02:49:34.960Z,82.25
2022-10-05T02:52:10.115Z,82.94
2022-10-05T02:54:49.050Z,82.85
2022-10-05T02:57:28.247Z,82.92
2022-10-05T03:00:07.408Z,83.18
2022-10-05T03:02:45.887Z,82.58
2022-10-05T03:05:22.115Z,82.28
2022-10-05T03:08:00.490Z,82.72
2022-10-05T03:10:38.686Z,82.94
2022-10-05T03:13:14.568Z,82.66
2022-10-05T03:16:04.699Z,82.82
2022-10-05T03:18:47.343Z,82.36
2022-10-05T03:21:32.398Z,82.49
2022-10-05T03:24:19.526Z,82.58
2022-10-05T03:26:58.067Z,82.76
2022-10-05T03:29:35.249Z,82.22
2022-10-05T03:32:19.419Z,82.23
2022-10-05T03:34:55.348Z,83.12
2022-10-05T03:37:35.478Z,82.83
2022-10-05T03:40:11.549Z,82.97
2022-10-05T03:43:00.190Z,83.16
2022-10-05T03:45:35.165Z,83.20
2022-10-05T03:48:09.978Z,83.17
2022-10-05T03:50:51.383Z,82.42
2022-10-05T03:53:22.117Z,82.85
2022-10-05T03:56:01.360Z,82.83
2022-10-05T03:58:40.689Z,83.19
2022-10-05T04:01:15.041Z,83.35
2022-10-05T04:03:47.339Z,82.96
2022-10-05T04:06:23.856Z,82.73
2022-10-05T04:08:58.609Z,83.26
2022-10-05T04:11:33.160Z,83.26
2022-10-05T04:14:07.672Z,83.54
2022-10-05T04:16:42.417Z,83.04
2022-10-05T04:19:16.515Z,83.12
2022-10-05T04:21:53.351Z,83.36
2022-10-05T04:24:30.623Z,83.29
2022-10-05T04:27:02.207Z,83.07
2022-10-05T04:29:39.880Z,82.80
2022-10-05T04:32:30.830Z,83.09
2022-10-05T04:35:20.239Z,83.21
2022-10-05T04:38:00.838Z,83.68
2022-10-05T04:40:42.881Z,83.57
2022-10-05T04:43:20.324Z,83.77
2022-10-05T04:46:15.213Z,83.92
2022-10-05T04:49:06.013Z,82.96
2022-10-05T04:51:42.109Z,83.69
2022-10-05T04:54:21.169Z,83.97
2022-10-05T04:56:56.538Z,83.56
2022-10-05T04:59:44.988Z,84.02
2022-10-05T05:02:25.350Z,83.99
2022-10-05T05:05:24.631Z,83.48
2022-10-05T05:08:18.499Z,83.45
2022-10-05T05:11:06.082Z,83.98
2022-10-05T05:13:51.991Z,83.38
2022-10-05T05:16:31.775Z,83.75
2022-10-05T05:19:11.174Z,83.83
2022-10-05T05:21:49.175Z,83.26
2022-10-05T05:24:29.583Z,83.54
2022-10-05T05:27:14.262Z,83.33
2022-10-05T05:29:54.260Z,83.49
2022-10-05T05:32:34.353Z,83.61
2022-10-05T05:35:24.980Z,83.74
2022-10-05T05:38:06.702Z,83.76
2022-10-05T05:40:41.811Z,83.62
2022-10-05T05:43:24.853Z,83.41
2022-10-05T05:46:01.214Z,83.82
2022-10-05T05:48:39.565Z,83.40
2022-10-05T05:51:15.714Z,84.16
2022-10-05T05:53:47.102Z,83.53
2022-10-05T05:56:21.555Z,83.43
2022-10-05T05:58:56.329Z,83.86
2022-10-05T06:01:34.058Z,83.84
2022-10-05T06:04:14.141Z,83.47
2022-10-05T06:06:48.789Z,83.99
2022-10-05T06:09:24.461Z,84.07
2022-10-05T06:12:07.323Z,84.04
2022-10-05T06:14:45.320Z,84.21
2022-10-05T06:17:19.241Z,84.06
2022-10-05T06:19:50.529Z,83.55
2022-10-05T06:22:24.280Z,84.09
2022-10-05T06:25:05.514Z,83.56
2022-10-05T06:27:39.122Z,83.08
2022-10-05T06:30:15.332Z,83.35
2022-10-05T06:33:10.054Z,83.17
2022-10-05T06:35:53.094Z,83.54
2022-10-05T06:38:39.184Z,83.75
2022-10-05T06:41:16.815Z,83.12
2022-10-05T06:43:58.274Z,83.69
2022-10-05T06:46:50.917Z,82.92
2022-10-05T06:49:54.704Z,82.39
2022-10-05T06:52:40.889Z,82.87
2022-10-05T06:55:19.816Z,82.14
2022-10-05T06:58:11.094Z,81.94
2022-10-05T07:00:44.198Z,81.80
2022-10-05T07:03:24.337Z,81.36
2022-10-05T07:06:02.394Z,82.17
2022-10-05T07:08:40.662Z,81.54
2022-10-05T07:11:22.124Z,81.39
2022-10-05T07:14:20.011Z,81.38
2022-10-05T07:17:17.592Z,81.51
2022-10-05T07:19:56.273Z,80.97
2022-10-05T07:23:02.997Z,80.73
2022-10-05T07:25:39.613Z,80.75
2022-10-05T07:28:14.813Z,80.25
2022-10-05T07:30:51.691Z,80.54
2022-10-05T07:33:26.354Z,80.14
2022-10-05T07:36:14.954Z,79.96
2022-10-05T07:38:49.413Z,79.97
2022-10-05T07:41:24.153Z,79.74
2022-10-05T07:44:02.458Z,79.59
2022-10-05T07:46:48.391Z,79.33
2022-10-05T07:49:27.626Z,78.73
2022-10-05T07:52:03.085Z,78.38
2022-10-05T07:54:39.522Z,77.93
2022-10-05T07:57:21.672Z,77.64
2022-10-05T07:59:58.064Z,77.43
2022-10-05T08:02:31.470Z,77.17
2022-10-05T08:05:05.014Z,76.40
2022-10-05T08:07:38.216Z,76.17
2022-10-05T08:10:24.305Z,76.21
2022-10-05T08:13:04.373Z,76.50
2022-10-05T08:15:38.460Z,76.24
2022-10-05T08:18:15.631Z,76.11
2022-10-05T08:20:48.104Z,75.82
2022-10-05T08:23:25.374Z,75.13
2022-10-05T08:26:07.015Z,74.95
2022-10-05T08:28:39.822Z,74.17
2022-10-05T08:31:22.976Z,74.45
2022-10-05T08:34:00.187Z,74.09
2022-10-05T08:36:45.023Z,74.21
2022-10-05T08:39:20.502Z,74.20
2022-10-05T08:42:11.181Z,74.31
2022-10-05T08:45:02.798Z,74.07
2022-10-05T08:47:48.224Z,73.60
2022-10-05T08:50:37.316Z,73.36
2022-10-05T08:53:22.135Z,73.03
2022-10-05T08:56:28.618Z,72.77
2022-10-05T08:59:26.534Z,72.61
2022-10-05T09:02:21.028Z,71.32
2022-10-05T09:05:18.744Z,70.78
2022-10-05T09:08:09.312Z,70.77
2022-10-05T09:11:02.653Z,70.58
2022-10-05T09:13:55.724Z,70.89
2022-10-05T09:16:46.155Z,70.34
2022-10-05T09:19:45.672Z,71.05
2022-10-05T09:22:24.392Z,71.19
2022-10-05T09:24:58.014Z,71.24
2022-10-05T09:27:37.776Z,71.64
2022-10-05T09:30:18.681Z,71.61
2022-10-05T09:33:17.773Z,71.42
2022-10-05T09:36:11.442Z,71.42
2022-10-05T09:39:05.560Z,71.91
2022-10-05T09:42:00.926Z,71.70
2022-10-05T09:45:01.178Z,70.88
2022-10-05T09:47:55.923Z,70.27
2022-10-05T09:50:50.067Z,69.92
2022-10-05T09:53:54.438Z,69.52
2022-10-05T09:56:52.117Z,68.15
2022-10-05T09:59:53.537Z,68.07
2022-10-05T10:02:42.445Z,67.75
2022-10-05T10:05:31.577Z,67.14
2022-10-05T10:08:16.176Z,67.02
2022-10-05T10:11:02.090Z,66.86
2022-10-05T10:14:01.185Z,66.34
2022-10-05T10:16:50.988Z,66.13
2022-10-05T10:19:47.099Z,65.58
2022-10-05T10:22:43.829Z,65.20
2022-10-05T10:25:40.892Z,65.31
2022-10-05T10:28:31.961Z,65.27
2022-10-05T10:31:25.066Z,64.46
2022-10-05T10:34:19.484Z,63.68
2022-10-05T10:37:16.526Z,62.25
2022-10-05T10:40:16.134Z,61.72
2022-10-05T10:43:04.310Z,61.74
2022-10-05T10:45:47.894Z,61.38
2022-10-05T10:48:40.985Z,60.70
2022-10-05T10:51:19.986Z,60.56
2022-10-05T10:54:12.594Z,60.32
2022-10-05T10:56:59.928Z,60.48
2022-10-05T10:59:57.127Z,60.51
2022-10-05T11:02:51.903Z,60.16
2022-10-05T11:05:41.043Z,60.25
2022-10-05T11:08:30.369Z,60.06
2022-10-05T11:11:17.940Z,59.89
2022-10-05T11:14:22.387Z,59.44
2022-10-05T11:17:19.338Z,58.92
2022-10-05T11:20:09.610Z,59.12
2022-10-05T11:22:51.405Z,58.98
2022-10-05T11:25:48.569Z,58.82
2022-10-05T11:28:46.737Z,58.51
2022-10-05T11:31:47.093Z,58.42
2022-10-05T11:34:41.864Z,58.49
2022-10-05T11:37:37.835Z,58.62
2022-10-05T11:40:33.387Z,58.06
2022-10-05T11:43:35.610Z,57.83
2022-10-05T11:46:12.185Z,57.74
2022-10-05T11:48:54.146Z,57.89
2022-10-05T11:51:35.549Z,57.95
2022-10-05T11:54:17.939Z,58.38
2022-10-05T11:56:54.656Z,58.94
2022-10-05T11:59:34.869Z,59.34
2022-10-05T12:02:15.450Z,58.89
2022-10-05T12:04:53.677Z,59.23
2022-10-05T12:07:31.349Z,59.61
2022-10-05T12:10:20.620Z,60.01
2022-10-05T12:13:14.993Z,60.19
2022-10-05T12:15:50.641Z,60.64
2022-10-05T12:18:26.727Z,60.94
2022-10-05T12:21:01.047Z,60.50
2022-10-05T12:23:37.401Z,60.64
2022-10-05T12:26:11.268Z,60.72
2022-10-05T12:28:47.668Z,60.68
2022-10-05T12:31:29.174Z,60.75
2022-10-05T12:34:06.687Z,60.69
2022-10-05T12:37:03.139Z,60.80
2022-10-05T12:39:40.917Z,60.93
2022-10-05T12:42:24.288Z,61.00
2022-10-05T12:45:25.767Z,61.30
2022-10-05T12:48:19.048Z,61.55
2022-10-05T12:50:51.475Z,61.79
2022-10-05T12:53:32.209Z,61.83
2022-10-05T12:56:10.894Z,62.09
2022-10-05T12:58:53.895Z,62.05
2022-10-05T13:01:35.455Z,61.74
2022-10-05T13:04:18.638Z,61.66
2022-10-05T13:06:57.917Z,61.76
2022-10-05T13:09:35.421Z,61.93
2022-10-05T13:12:11.098Z,62.04
2022-10-05T13:14:56.350Z,61.97
2022-10-05T13:17:35.676Z,62.14
2022-10-05T13:20:14.409Z,61.98
2022-10-05T13:22:46.939Z,62.33
2022-10-05T13:25:31.659Z,62.45
2022-10-05T13:28:17.151Z,62.78
2022-10-05T13:30:55.283Z,62.91
2022-10-05T13:33:38.574Z,62.74
2022-10-05T13:36:18.081Z,62.66
2022-10-05T13:38:57.211Z,62.82
2022-10-05T13:41:34.840Z,62.86
2022-10-05T13:44:18.430Z,62.84
2022-10-05T13:46:51.408Z,62.92
2022-10-05T13:49:29.151Z,62.95
2022-10-05T13:52:08.907Z,63.12
2022-10-05T13:54:53.818Z,63.23
2022-10-05T13:57:45.354Z,63.30
2022-10-05T14:00:24.141Z,63.54
2022-10-05T14:02:57.098Z,63.18
2022-10-05T14:05:28.661Z,62.95
2022-10-05T14:07:59.818Z,63.15
2022-10-05T14:10:36.758Z,63.43
2022-10-05T14:13:21.717Z,63.43
2022-10-05T14:16:05.958Z,63.52
2022-10-05T14:18:38.407Z,63.86
2022-10-05T14:21:22.353Z,64.24
2022-10-05T14:23:51.200Z,64.25
2022-10-05T14:26:34.671Z,64.43
2022-10-05T14:29:17.293Z,64.39
2022-10-05T14:31:52.774Z,64.81
2022-10-05T14:34:32.110Z,64.74
2022-10-05T14:37:10.380Z,64.65
2022-10-05T14:39:44.453Z,64.79
2022-10-05T14:42:19.945Z,65.18
2022-10-05T14:45:01.144Z,64.96
2022-10-05T14:47:32.693Z,65.23
2022-10-05T14:50:14.170Z,65.34
2022-10-05T14:52:51.623Z,65.74
2022-10-05T14:55:42.914Z,65.69
2022-10-05T14:58:30.002Z,65.80
2022-10-05T15:01:11.508Z,65.81
2022-10-05T15:03:49.322Z,66.19
2022-10-05T15:06:27.373Z,66.26
2022-10-05T15:09:29.842Z,66.27
2022-10-05T15:12:01.595Z,66.22
2022-10-05T15:14:33.771Z,65.97
2022-10-05T15:17:04.566Z,65.99
2022-10-05T15:19:47.202Z,66.12
2022-10-05T15:22:26.840Z,66.34
2022-10-05T15:25:01.905Z,66.43
2022-10-05T15:27:38.490Z,66.30
2022-10-05T15:30:13.073Z,66.58
2022-10-05T15:32:57.892Z,66.32
2022-10-05T15:35:46.745Z,66.57
2022-10-05T15:38:23.164Z,66.17
2022-10-05T15:41:03.829Z,66.37
2022-10-05T15:43:46.929Z,66.42
2022-10-05T15:46:19.512Z,66.37
2022-10-05T15:48:56.100Z,67.16
2022-10-05T15:51:37.836Z,67.51
2022-10-05T15:54:21.641Z,67.70
2022-10-05T15:57:01.072Z,67.58
2022-10-05T15:59:35.889Z,67.88
2022-10-05T16:02:15.836Z,67.74
2022-10-05T16:04:53.560Z,67.90
2022-10-05T16:07:38.982Z,68.19
2022-10-05T16:10:17.553Z,68.69
2022-10-05T16:13:05.483Z,70.00
2022-10-05T16:15:39.785Z,70.11
2022-10-05T16:18:32.381Z,70.05
2022-10-05T16:21:11.135Z,69.39
2022-10-05T16:23:52.833Z,69.48
2022-10-05T16:26:34.082Z,69.58
2022-10-05T16:29:10.690Z,69.78
2022-10-05T16:31:47.451Z,70.30
2022-10-05T16:34:31.152Z,70.72
2022-10-05T16:37:10.040Z,70.97
2022-10-05T16:39:53.282Z,71.28
2022-10-05T16:42:42.196Z,72.07
2022-10-05T16:45:29.498Z,72.19
2022-10-05T16:48:06.511Z,71.81
2022-10-05T16:50:44.919Z,72.11
2022-10-05T16:53:19.304Z,72.75
2022-10-05T16:55:53.610Z,72.87
2022-10-05T16:58:27.864Z,73.50
2022-10-05T17:01:12.924Z,73.95
2022-10-05T17:03:55.004Z,74.19
2022-10-05T17:06:44.293Z,74.79
2022-10-05T17:09:42.079Z,74.96
2022-10-05T17:12:31.283Z,75.48
2022-10-05T17:15:13.212Z,75.68
2022-10-05T17:18:05.172Z,75.99
2022-10-05T17:20:46.146Z,76.37
2022-10-05T17:23:30.529Z,76.51
2022-10-05T17:26:17.469Z,76.36
2022-10-05T17:29:01.249Z,76.88
2022-10-05T17:31:32.763Z,77.12
2022-10-05T17:34:27.790Z,77.06
2022-10-05T17:37:00.026Z,77.42
2022-10-05T17:39:50.406Z,77.24
2022-10-05T17:42:47.934Z,77.91
2022-10-05T17:45:38.385Z,77.87
2022-10-05T17:48:11.050Z,78.36
2022-10-05T17:50:54.204Z,78.62
2022-10-05T17:53:33.803Z,78.62
2022-10-05T17:56:05.711Z,79.09
2022-10-05T17:59:02.833Z,79.14
2022-10-05T18:01:37.172Z,79.21
2022-10-05T18:04:30.669Z,79.81
2022-10-05T18:07:06.833Z,79.68
2022-10-05T18:09:37.791Z,80.00
2022-10-05T18:12:37.222Z,79.94
2022-10-05T18:15:45.420Z,80.36
2022-10-05T18:18:35.819Z,80.34
2022-10-05T18:21:24.655Z,80.98
2022-10-05T18:24:17.620Z,80.90
2022-10-05T18:26:59.873Z,80.99
2022-10-05T18:29:57.952Z,81.18
2022-10-05T18:32:36.953Z,81.51
2022-10-05T18:35:11.636Z,81.54
2022-10-05T18:37:49.489Z,81.47
2022-10-05T18:40:31.903Z,81.54
2022-10-05T18:43:13.747Z,81.96
2022-10-05T18:46:01.199Z,82.12
2022-10-05T18:48:39.002Z,82.23
2022-10-05T18:51:20.162Z,82.05
2022-10-05T18:54:03.262Z,82.17
2022-10-05T18:56:39.373Z,82.33
2022-10-05T18:59:25.895Z,82.46
2022-10-05T19:02:07.879Z,82.58
2022-10-05T19:04:50.610Z,82.47
2022-10-05T19:07:32.821Z,82.13
2022-10-05T19:10:13.080Z,82.74
2022-10-05T19:12:58.343Z,82.73
2022-10-05T19:15:35.629Z,82.82
2022-10-05T19:18:34.923Z,82.97
2022-10-05T19:21:14.782Z,82.91
2022-10-05T19:24:01.443Z,82.76
2022-10-05T19:26:48.861Z,82.99
2022-10-05T19:29:34.560Z,83.18
2022-10-05T19:32:09.273Z,83.36
2022-10-05T19:34:55.543Z,83.20
2022-10-05T19:37:36.104Z,83.29
2022-10-05T19:40:13.842Z,83.38
2022-10-05T19:43:02.769Z,83.54
2022-10-05T19:45:38.826Z,83.38
2022-10-05T19:48:20.623Z,83.60
2022-10-05T19:50:58.710Z,83.42
2022-10-05T19:53:31.257Z,83.24
2022-10-05T19:56:20.358Z,83.62
2022-10-05T19:58:50.251Z,83.58
2022-10-05T20:01:27.706Z,83.72
2022-10-05T20:03:57.879Z,83.84
2022-10-05T20:06:27.229Z,83.63
2022-10-05T20:09:00.414Z,83.91
2022-10-05T20:11:29.814Z,83.81
2022-10-05T20:14:19.244Z,83.89
2022-10-05T20:16:59.249Z,83.95
2022-10-05T20:19:45.879Z,83.94
2022-10-05T20:22:34.406Z,83.91
2022-10-05T20:25:05.929Z,83.86
2022-10-05T20:27:46.712Z,83.90
2022-10-05T20:30:18.529Z,83.87
2022-10-05T20:32:50.625Z,83.77
2022-10-05T20:35:22.337Z,83.55
2022-10-05T20:37:51.291Z,83.69
2022-10-05T20:40:21.545Z,83.71
2022-10-05T20:42:50.540Z,83.79
2022-10-05T20:45:19.151Z,83.64
2022-10-05T20:47:49.170Z,83.78
2022-10-05T20:50:17.903Z,83.64
2022-10-05T20:52:46.481Z,83.91
2022-10-05T20:55:15.050Z,83.49
2022-10-05T20:57:43.669Z,83.82
2022-10-05T21:00:14.390Z,83.76
2022-10-05T21:02:43.073Z,83.83
2022-10-05T21:05:13.142Z,83.77
2022-10-05T21:07:42.022Z,83.68
2022-10-05T21:10:11.025Z,84.05
2022-10-05T21:12:39.641Z,83.88
2022-10-05T21:15:10.563Z,84.03
2022-10-05T21:17:39.332Z,83.56
2022-10-05T21:20:11.561Z,83.90
2022-10-05T21:22:43.284Z,83.68
2022-10-05T21:25:11.953Z,84.09
2022-10-05T21:27:41.499Z,83.76
2022-10-05T21:30:10.599Z,83.65
2022-10-05T21:32:43.944Z,83.64
2022-10-05T21:35:13.185Z,84.08
2022-10-05T21:37:43.202Z,83.97
2022-10-05T21:40:12.424Z,83.82
2022-10-05T21:42:41.043Z,84.12
2022-10-05T21:45:11.061Z,84.12
2022-10-05T21:47:39.689Z,83.87
2022-10-05T21:50:09.921Z,83.83
2022-10-05T21:52:38.683Z,83.95
2022-10-05T21:55:09.814Z,83.58
2022-10-05T21:57:39.434Z,83.68
2022-10-05T22:00:09.813Z,83.51
2022-10-05T22:02:38.594Z,83.80
2022-10-05T22:05:07.513Z,83.82
2022-10-05T22:07:36.354Z,83.63
2022-10-05T22:10:05.916Z,83.84
2022-10-05T22:12:36.064Z,83.61
2022-10-05T22:15:06.522Z,83.89
2022-10-05T22:17:36.335Z,83.79
2022-10-05T22:20:05.033Z,84.06
2022-10-05T22:22:33.666Z,84.08
2022-10-05T22:25:02.276Z,83.94
2022-10-05T22:27:32.035Z,84.14
2022-10-05T22:30:04.092Z,83.99
2022-10-05T22:32:32.747Z,83.99
2022-10-05T22:35:01.345Z,83.86
2022-10-05T22:37:30.346Z,84.21
2022-10-05T22:39:59.015Z,83.97
2022-10-05T22:42:28.047Z,84.31
2022-10-05T22:44:57.037Z,84.35
2022-10-05T22:47:27.313Z,83.92
2022-10-05T22:49:55.904Z,83.96
2022-10-05T22:52:24.634Z,84.36
2022-10-05T22:54:53.446Z,83.99
2022-10-05T22:57:22.175Z,84.39
2022-10-05T22:59:50.937Z,84.39
2022-10-05T23:02:20.079Z,84.15
2022-10-05T23:04:50.244Z,84.39
2022-10-05T23:07:19.085Z,84.17
2022-10-05T23:09:47.676Z,84.31
2022-10-05T23:12:16.369Z,84.47
2022-10-05T23:14:44.938Z,84.17
2022-10-05T23:17:13.602Z,84.33
2022-10-05T23:19:42.190Z,84.41
2022-10-05T23:22:12.280Z,84.15
2022-10-05T23:24:40.927Z,84.43
2022-10-05T23:27:09.559Z,84.43
2022-10-05T23:29:38.297Z,84.35
2022-10-05T23:32:08.400Z,84.60
2022-10-05T23:34:37.018Z,84.50
2022-10-05T23:37:05.876Z,83.96
2022-10-05T23:39:35.802Z,84.41
2022-10-05T23:42:05.331Z,84.39
2022-10-05T23:44:34.047Z,84.38
2022-10-05T23:47:02.550Z,84.52
2022-10-05T23:49:31.118Z,84.37
2022-10-05T23:52:00.006Z,83.99
2022-10-05T23:54:28.545Z,83.91
2022-10-05T23:56:58.498Z,84.05
2022-10-05T23:59:27.168Z,84.38
